Etusivu
METAR-TAF:

METAR-TAF

Lentoasemat :

Essaouira-Mogadorin lentoasema

Essaouira, Marokko

Leveyspiiri: 31-31N, Pituuspiiri: 009-47W, korkeus merenpinnasta: 15 m

Tämänhetkinen sää

Tämä raportti tehtiin 1 tunti ja 8 minuuttia sitten, kello 11.00 UTC
Tuuli 6 kn pohjoisen/luoteesta, vaihdellen lännen ja koillisen välillä
Lämpötila 25°C
Kosteus 57%
Ilmanpaine

METAR: GMMI 251100Z AUTO 33006KT 280V040 //// ////// 25/16 Q//// NOSIG

Aika: 13:08 (12:08 UTC)

Sääennuste

Tämä raportti tehtiin 1 tunti ja 8 minuuttia sitten, kello 11.00 UTC
Ennuste voimassa 25. päivästä klo 12 UTC - 26. päivään klo 18 UTC
Tuuli 6 kn pohjoisen/luoteesta
Näkyvyys: 6000 m
Hajonneita pilviä 2600 ft:n korkeudessa

TAF: GMMI 251100Z 2512/2618 33006KT 6000 BKN026

Säähavainnot ja -ennusteet yli 4000 lentoasemalta (METAR- ja TAF-raportit).

Käytössä olevat sääasemat on merkitty karttaan keltaisilla ja punaisilla pisteillä.

Aseta hiiri pisteen päälle nähdäksesi sääaseman nimen.

Klikkaa sitten nähdäksesi säähavainnot ja -ennusteet.

Kartan vaihtaminen: klikkaa mustalla rastilla varustettuja vihreitä pisteitä, niin voit zoomata sisään; viivalla varustettua vihreää pistettä, niin voit zoomata ulos tai vihreitä nuolia, niin pääset viereisille kartoille.


METAR-TAF: